createdAt,value
2023-12-03T00:01:16.163Z,100893.84
2023-12-03T00:03:45.180Z,100846.66
2023-12-03T00:06:16.756Z,100849.22
2023-12-03T00:08:59.405Z,100855.28
2023-12-03T00:11:30.500Z,100889.31
2023-12-03T00:14:03.170Z,100901.50
2023-12-03T00:16:41.184Z,100893.69
2023-12-03T00:19:18.677Z,100881.44
2023-12-03T00:21:50.217Z,100878.81
2023-12-03T00:24:26.096Z,100849.13
2023-12-03T00:27:31.507Z,100829.03
2023-12-03T00:30:09.187Z,100802.88
2023-12-03T00:35:32.502Z,100786.19
2023-12-03T00:38:09.708Z,100783.53
2023-12-03T00:40:47.801Z,100805.25
2023-12-03T00:43:20.312Z,100816.59
2023-12-03T00:45:53.281Z,100803.47
2023-12-03T00:51:36.160Z,100821.72
2023-12-03T00:57:53.599Z,100770.19
2023-12-03T01:06:15.271Z,100749.91
2023-12-03T01:09:03.206Z,100752.50
2023-12-03T01:14:41.327Z,100779.41
2023-12-03T01:17:31.179Z,100790.72
2023-12-03T01:20:09.525Z,100815.06
2023-12-03T01:22:48.500Z,100841.25
2023-12-03T01:25:35.241Z,100867.38
2023-12-03T01:28:19.297Z,100870.88
2023-12-03T01:31:13.725Z,100900.56
2023-12-03T01:33:57.796Z,100910.16
2023-12-03T01:36:38.692Z,100878.78
2023-12-03T01:39:20.417Z,100884.03
2023-12-03T01:41:53.060Z,100930.22
2023-12-03T01:44:21.730Z,100966.84
2023-12-03T01:46:57.154Z,101003.59
2023-12-03T01:49:36.790Z,101007.06
2023-12-03T01:52:28.333Z,101029.84
2023-12-03T01:55:21.422Z,101057.84
2023-12-03T01:58:01.391Z,101070.13
2023-12-03T02:00:49.760Z,101071.09
2023-12-03T02:10:02.703Z,101114.06
2023-12-03T02:12:45.867Z,101101.03
2023-12-03T02:15:16.333Z,101108.97
2023-12-03T02:17:53.606Z,101118.63
2023-12-03T02:20:42.256Z,101096.84
2023-12-03T02:23:25.926Z,101114.34
2023-12-03T02:29:35.262Z,101144.19
2023-12-03T02:32:36.205Z,101107.53
2023-12-03T02:35:18.271Z,101168.72
2023-12-03T02:37:51.458Z,101169.66
2023-12-03T02:40:46.603Z,101168.84
2023-12-03T02:43:19.514Z,101171.47
2023-12-03T02:45:55.661Z,101165.34
2023-12-03T02:48:30.126Z,101173.19
2023-12-03T02:51:16.573Z,101154.88
2023-12-03T02:54:23.352Z,101181.06
2023-12-03T02:59:59.711Z,101233.53
2023-12-03T03:08:02.248Z,101255.50
2023-12-03T03:10:30.731Z,101265.09
2023-12-03T03:13:13.242Z,101242.38
2023-12-03T03:15:54.377Z,101277.41
2023-12-03T03:18:24.552Z,101271.31
2023-12-03T03:20:59.484Z,101280.97
2023-12-03T03:23:31.210Z,101275.72
2023-12-03T03:25:59.961Z,101277.47
2023-12-03T03:28:51.258Z,101281.88
2023-12-03T03:31:28.071Z,101271.38
2023-12-03T03:34:29.605Z,101280.09
2023-12-03T03:37:01.427Z,101233.75
2023-12-03T03:50:42.890Z,101273.09
2023-12-03T03:56:29.268Z,101314.25
2023-12-03T03:58:57.923Z,101302.91
2023-12-03T04:01:41.305Z,101291.50
2023-12-03T04:04:18.788Z,101306.41
2023-12-03T04:06:59.174Z,101313.44
2023-12-03T04:12:24.002Z,101318.72
2023-12-03T04:15:39.101Z,101302.16
2023-12-03T04:18:12.709Z,101317.00
2023-12-03T04:24:55.603Z,101330.19
2023-12-03T04:28:37.330Z,101310.09
2023-12-03T04:31:30.284Z,101346.84
2023-12-03T04:34:00.620Z,101325.00
2023-12-03T04:36:54.166Z,101305.78
2023-12-03T04:39:28.516Z,101309.28
2023-12-03T04:42:23.032Z,101303.16
2023-12-03T04:44:58.804Z,101338.19
2023-12-03T04:47:38.989Z,101323.28
2023-12-03T04:50:13.662Z,101345.19
2023-12-03T04:52:49.704Z,101318.97
2023-12-03T04:55:18.768Z,101321.56
2023-12-03T04:57:52.769Z,101306.69
2023-12-03T05:00:25.880Z,101322.41
2023-12-03T05:03:11.527Z,101332.94
2023-12-03T05:06:24.638Z,101311.97
2023-12-03T05:09:41.550Z,101295.28
2023-12-03T05:12:22.617Z,101298.81
2023-12-03T05:15:26.220Z,101262.03
2023-12-03T05:20:48.604Z,101278.59
2023-12-03T05:23:18.163Z,101287.41
2023-12-03T05:25:51.384Z,101313.69
2023-12-03T05:31:18.033Z,101275.25
2023-12-03T05:33:47.773Z,101240.25
2023-12-03T05:36:27.401Z,101252.50
2023-12-03T05:38:58.532Z,101258.63
2023-12-03T05:41:40.198Z,101236.75
2023-12-03T05:44:11.343Z,101221.00
2023-12-03T05:46:44.335Z,101229.75
2023-12-03T05:49:13.200Z,101204.38
2023-12-03T05:51:45.506Z,101203.44
2023-12-03T05:54:16.641Z,101186.84
2023-12-03T05:56:49.391Z,101185.94
2023-12-03T05:59:24.017Z,101194.69
2023-12-03T06:02:02.880Z,101176.28
2023-12-03T06:04:48.089Z,101158.81
2023-12-03T06:07:20.229Z,101169.28
2023-12-03T06:09:48.589Z,101158.81
2023-12-03T06:12:18.912Z,101162.25
2023-12-03T06:14:47.463Z,101191.09
2023-12-03T06:17:29.439Z,101192.84
2023-12-03T06:20:00.258Z,101203.31
2023-12-03T06:22:28.365Z,101208.59
2023-12-03T06:24:59.861Z,101171.88
2023-12-03T06:27:48.893Z,101139.53
2023-12-03T06:30:20.681Z,101137.72
2023-12-03T06:32:50.593Z,101149.94
2023-12-03T06:35:24.874Z,101143.81
2023-12-03T06:37:53.172Z,101168.28
2023-12-03T06:40:24.145Z,101159.53
2023-12-03T06:42:52.678Z,101159.47
2023-12-03T06:45:26.855Z,101130.56
2023-12-03T06:48:13.658Z,101130.53
2023-12-03T06:50:46.452Z,101184.72
2023-12-03T06:53:34.539Z,101183.78
2023-12-03T06:56:03.207Z,101163.69
2023-12-03T06:58:32.096Z,101181.16
2023-12-03T07:01:00.450Z,101186.34
2023-12-03T07:03:30.240Z,101216.03
2023-12-03T07:06:02.161Z,101216.94
2023-12-03T07:08:30.611Z,101225.72
2023-12-03T07:10:58.876Z,101229.22
2023-12-03T07:13:33.506Z,101231.81
2023-12-03T07:16:06.689Z,101241.47
2023-12-03T07:18:47.850Z,101268.56
2023-12-03T07:21:16.062Z,101257.19
2023-12-03T07:23:44.566Z,101288.66
2023-12-03T07:26:13.093Z,101313.97
2023-12-03T07:28:41.724Z,101251.00
2023-12-03T07:31:13.158Z,101308.72
2023-12-03T07:33:48.287Z,101334.09
2023-12-03T07:36:16.962Z,101297.34
2023-12-03T07:38:45.149Z,101279.84
2023-12-03T07:41:14.317Z,101310.41
2023-12-03T07:43:42.737Z,101338.31
2023-12-03T07:46:19.113Z,101307.78
2023-12-03T07:48:51.177Z,101327.00
2023-12-03T07:51:19.546Z,101325.22
2023-12-03T07:53:48.060Z,101362.88
2023-12-03T07:56:47.933Z,101324.47
2023-12-03T07:59:18.230Z,101401.44
2023-12-03T08:01:46.396Z,101336.75
2023-12-03T08:04:27.369Z,101270.34
2023-12-03T08:06:56.287Z,101318.47
2023-12-03T08:09:24.976Z,101286.97
2023-12-03T08:12:06.682Z,101299.22
2023-12-03T08:14:35.124Z,101266.91
2023-12-03T08:17:03.568Z,101254.72
2023-12-03T08:19:34.346Z,101280.06
2023-12-03T08:22:02.418Z,101292.38
2023-12-03T08:24:30.466Z,101308.19
2023-12-03T08:26:58.368Z,101272.38
2023-12-03T08:29:26.712Z,101270.66
2023-12-03T08:31:54.789Z,101250.53
2023-12-03T08:34:22.925Z,101289.91
2023-12-03T08:36:52.561Z,101331.09
2023-12-03T08:39:20.920Z,101269.88
2023-12-03T08:41:49.400Z,101234.88
2023-12-03T08:44:17.593Z,101305.75
2023-12-03T08:48:02.252Z,101272.59
2023-12-03T08:50:32.990Z,101269.06
2023-12-03T08:53:01.260Z,101261.25
2023-12-03T08:55:29.248Z,101254.28
2023-12-03T08:57:57.275Z,101163.28
2023-12-03T09:00:25.237Z,101172.88
2023-12-03T09:02:53.168Z,101146.72
2023-12-03T09:05:22.407Z,101208.75
2023-12-03T09:07:50.544Z,101182.53
2023-12-03T09:10:18.460Z,101220.13
2023-12-03T09:12:46.386Z,101221.91
2023-12-03T09:15:14.790Z,101282.34
2023-12-03T09:17:42.761Z,101171.25
2023-12-03T09:20:10.898Z,101242.94
2023-12-03T09:22:40.185Z,101242.97
2023-12-03T09:25:08.400Z,101283.22
2023-12-03T09:27:36.417Z,101237.81
2023-12-03T09:30:05.609Z,101262.31
2023-12-03T09:32:37.512Z,101260.66
2023-12-03T09:35:06.226Z,101238.81
2023-12-03T09:37:34.274Z,101140.03
2023-12-03T09:40:05.274Z,101181.94
2023-12-03T09:42:40.818Z,101173.25
2023-12-03T09:45:12.838Z,101099.78
2023-12-03T09:47:46.171Z,101261.66
2023-12-03T09:50:14.705Z,101218.84
2023-12-03T09:52:45.227Z,101157.66
2023-12-03T09:55:14.765Z,101125.31
2023-12-03T09:57:43.762Z,101134.94
2023-12-03T10:00:12.892Z,101073.75
2023-12-03T10:02:43.768Z,101123.56
2023-12-03T10:05:13.635Z,101118.31
2023-12-03T10:07:42.192Z,101155.09
2023-12-03T10:10:12.014Z,101135.03
2023-12-03T10:12:44.139Z,101109.69
2023-12-03T10:15:13.707Z,101117.53
2023-12-03T10:17:42.090Z,100969.75
2023-12-03T10:20:23.429Z,101027.44
2023-12-03T10:22:52.618Z,101109.66
2023-12-03T10:25:31.125Z,101030.94
2023-12-03T10:28:02.447Z,100989.84
2023-12-03T10:30:30.583Z,101035.34
2023-12-03T10:32:58.624Z,101039.69
2023-12-03T10:35:27.720Z,100807.16
2023-12-03T10:37:55.739Z,100808.03
2023-12-03T10:40:23.559Z,100895.44
2023-12-03T10:42:51.448Z,100925.13
2023-12-03T10:45:20.856Z,101037.88
2023-12-03T10:47:48.821Z,101075.47
2023-12-03T10:50:16.718Z,101080.75
2023-12-03T10:52:44.561Z,101077.22
2023-12-03T10:55:12.433Z,101038.75
2023-12-03T10:57:50.555Z,101045.78
2023-12-03T11:00:22.607Z,101157.78
2023-12-03T11:03:00.370Z,101028.31
2023-12-03T11:05:34.192Z,100995.06
2023-12-03T11:08:04.444Z,101037.94
2023-12-03T11:10:34.211Z,100974.09
2023-12-03T11:13:02.449Z,100978.47
2023-12-03T11:15:32.197Z,100959.22
2023-12-03T11:18:01.363Z,100781.81
2023-12-03T11:20:32.972Z,100833.38
2023-12-03T11:23:20.700Z,100932.13
2023-12-03T11:25:57.363Z,100898.94
2023-12-03T11:28:25.288Z,100954.81
2023-12-03T11:30:55.673Z,100945.16
2023-12-03T11:33:25.950Z,101078.00
2023-12-03T11:35:54.655Z,101014.19
2023-12-03T11:38:33.406Z,101088.44
2023-12-03T11:41:02.905Z,101140.03
2023-12-03T11:43:32.481Z,101120.78
2023-12-03T11:46:01.967Z,101117.31
2023-12-03T11:48:31.952Z,101151.41
2023-12-03T11:51:00.080Z,101138.31
2023-12-03T11:53:39.521Z,101160.19
2023-12-03T11:56:10.122Z,101105.97
2023-12-03T11:58:38.252Z,101117.31
2023-12-03T12:01:10.231Z,101120.81
2023-12-03T12:03:38.479Z,101134.75
2023-12-03T12:06:06.999Z,101134.81
2023-12-03T12:08:35.999Z,101146.19
2023-12-03T12:11:05.095Z,101131.38
2023-12-03T12:13:33.342Z,101199.59
2023-12-03T12:16:01.363Z,101238.97
2023-12-03T12:18:30.742Z,101169.03
2023-12-03T12:21:08.774Z,101085.06
2023-12-03T12:23:36.953Z,101143.63
2023-12-03T12:26:06.037Z,101106.03
2023-12-03T12:28:34.096Z,101107.81
2023-12-03T12:31:02.146Z,101144.56
2023-12-03T12:33:31.917Z,101105.22
2023-12-03T12:36:02.177Z,101053.59
2023-12-03T12:38:30.071Z,101029.94
2023-12-03T12:40:58.114Z,101077.13
2023-12-03T12:43:26.021Z,101055.25
2023-12-03T12:45:53.944Z,101082.31
2023-12-03T12:48:27.773Z,100995.72
2023-12-03T12:50:57.725Z,101102.31
2023-12-03T12:53:26.004Z,101072.59
2023-12-03T12:55:54.767Z,101121.50
2023-12-03T12:58:22.648Z,101181.84
2023-12-03T13:00:50.541Z,101109.31
2023-12-03T13:03:18.675Z,101182.69
2023-12-03T13:05:46.552Z,101202.84
2023-12-03T13:08:15.828Z,101210.78
2023-12-03T13:10:43.756Z,101191.50
2023-12-03T13:13:12.442Z,101146.91
2023-12-03T13:15:42.790Z,101132.06
2023-12-03T13:18:16.679Z,101154.78
2023-12-03T13:20:50.990Z,101202.91
2023-12-03T13:23:20.227Z,101135.56
2023-12-03T13:25:48.025Z,101078.75
2023-12-03T13:28:16.088Z,101131.13
2023-12-03T13:30:44.012Z,101079.50
2023-12-03T13:33:12.059Z,101055.00
2023-12-03T13:35:40.087Z,101078.59
2023-12-03T13:38:07.929Z,101146.69
2023-12-03T13:40:37.151Z,101096.84
2023-12-03T13:43:05.007Z,101157.09
2023-12-03T13:45:32.911Z,101162.28
2023-12-03T13:48:00.915Z,101168.38
2023-12-03T13:50:28.829Z,101217.38
2023-12-03T13:52:58.190Z,101225.22
2023-12-03T13:55:26.619Z,101237.44
2023-12-03T13:57:56.183Z,101139.59
2023-12-03T14:00:24.087Z,101128.13
2023-12-03T14:02:52.554Z,101115.00
2023-12-03T14:05:24.452Z,101155.06
2023-12-03T14:07:55.197Z,101172.50
2023-12-03T14:10:24.543Z,101245.88
2023-12-03T14:12:53.021Z,101224.94
2023-12-03T14:15:22.548Z,101272.97
2023-12-03T14:17:50.637Z,101219.66
2023-12-03T14:20:18.937Z,101245.81
2023-12-03T14:22:46.822Z,101285.16
2023-12-03T14:25:14.987Z,101245.81
2023-12-03T14:27:45.418Z,101294.78
2023-12-03T14:30:14.312Z,101267.66
2023-12-03T14:32:43.700Z,101285.94
2023-12-03T14:35:12.374Z,101287.72
2023-12-03T14:37:40.422Z,101305.16
2023-12-03T14:40:14.088Z,101339.28
2023-12-03T14:42:42.018Z,101337.50
2023-12-03T14:45:11.328Z,101341.78
2023-12-03T14:47:39.338Z,101359.25
2023-12-03T14:50:10.065Z,101360.97
2023-12-03T14:52:38.067Z,101361.81
2023-12-03T14:55:07.219Z,101379.22
2023-12-03T14:57:35.224Z,101334.66
2023-12-03T15:00:05.133Z,101336.28
2023-12-03T15:02:33.064Z,101396.59
2023-12-03T15:05:00.894Z,101393.13
2023-12-03T15:07:31.478Z,101409.75
2023-12-03T15:09:59.739Z,101365.13
2023-12-03T15:12:28.081Z,101412.41
2023-12-03T15:14:56.043Z,101418.47
2023-12-03T15:17:23.882Z,101442.13
2023-12-03T15:19:52.406Z,101425.53
2023-12-03T15:22:20.512Z,101401.06
2023-12-03T15:24:49.965Z,101437.84
2023-12-03T15:27:18.035Z,101460.56
2023-12-03T15:29:46.045Z,101394.13
2023-12-03T15:32:13.950Z,101413.31
2023-12-03T15:34:41.807Z,101438.75
2023-12-03T15:37:10.210Z,101393.34
2023-12-03T15:39:38.102Z,101444.09
2023-12-03T15:42:07.916Z,101425.75
2023-12-03T15:44:35.736Z,101422.31
2023-12-03T15:47:03.591Z,101396.88
2023-12-03T15:49:31.560Z,101406.56
2023-12-03T15:51:59.427Z,101424.09
2023-12-03T15:54:27.644Z,101419.75
2023-12-03T15:56:57.094Z,101382.16
2023-12-03T15:59:26.367Z,101396.09
2023-12-03T16:01:54.899Z,101390.84
2023-12-03T16:04:22.824Z,101367.22
2023-12-03T16:06:52.028Z,101376.81
2023-12-03T16:09:20.167Z,101375.84
2023-12-03T16:11:48.161Z,101371.50
2023-12-03T16:14:15.940Z,101378.53
2023-12-03T16:16:46.080Z,101379.38
2023-12-03T16:19:14.730Z,101393.38
2023-12-03T16:21:42.735Z,101429.22
2023-12-03T16:24:12.944Z,101403.03
2023-12-03T16:26:41.356Z,101403.94
2023-12-03T16:29:09.167Z,101397.81
2023-12-03T16:31:37.267Z,101397.78
2023-12-03T16:34:06.914Z,101375.03
2023-12-03T16:36:35.058Z,101387.28
2023-12-03T16:39:04.986Z,101335.66
2023-12-03T16:41:35.678Z,101358.34
2023-12-03T16:44:03.637Z,101370.59
2023-12-03T16:46:31.609Z,101369.69
2023-12-03T16:49:01.885Z,101377.59
2023-12-03T16:51:36.567Z,101370.56
2023-12-03T16:54:05.582Z,101376.69
2023-12-03T16:56:33.486Z,101374.00
2023-12-03T16:59:01.328Z,101389.75
2023-12-03T17:01:31.013Z,101410.69
2023-12-03T17:03:59.106Z,101407.31
2023-12-03T17:06:27.181Z,101378.41
2023-12-03T17:08:57.455Z,101400.25
2023-12-03T17:11:26.331Z,101360.06
2023-12-03T17:13:54.776Z,101370.56
2023-12-03T17:16:22.841Z,101372.28
2023-12-03T17:18:55.935Z,101364.44
2023-12-03T17:21:24.414Z,101339.88
2023-12-03T17:23:56.325Z,101337.19
2023-12-03T17:26:28.986Z,101335.44
2023-12-03T17:29:00.425Z,101354.69
2023-12-03T17:31:40.830Z,101344.97
2023-12-03T17:34:10.748Z,101320.50
2023-12-03T17:36:39.026Z,101318.66
2023-12-03T17:39:13.435Z,101346.56
2023-12-03T17:41:42.827Z,101334.25
2023-12-03T17:44:10.894Z,101351.66
2023-12-03T17:46:38.691Z,101388.38
2023-12-03T17:49:06.752Z,101375.16
2023-12-03T17:51:36.832Z,101398.78
2023-12-03T17:54:05.809Z,101414.50
2023-12-03T17:56:33.698Z,101407.47
2023-12-03T17:59:03.404Z,101424.88
2023-12-03T18:01:31.370Z,101449.44
2023-12-03T18:03:59.790Z,101473.00
2023-12-03T18:06:29.453Z,101468.75
2023-12-03T18:08:58.945Z,101485.38
2023-12-03T18:11:26.807Z,101474.91
2023-12-03T18:13:54.741Z,101445.22
2023-12-03T18:16:24.188Z,101394.47
2023-12-03T18:18:53.877Z,101392.66
2023-12-03T18:21:22.809Z,101369.06
2023-12-03T18:23:50.729Z,101369.84
2023-12-03T18:26:18.653Z,101339.22
2023-12-03T18:28:46.905Z,101346.09
2023-12-03T18:31:18.936Z,101360.91
2023-12-03T18:33:48.518Z,101338.06
2023-12-03T18:36:17.894Z,101346.72
2023-12-03T18:38:46.171Z,101378.16
2023-12-03T18:41:16.286Z,101369.38
2023-12-03T18:43:45.433Z,101369.25
2023-12-03T18:46:14.203Z,101376.19
2023-12-03T18:48:42.623Z,101392.72
2023-12-03T18:51:12.369Z,101381.31
2023-12-03T18:53:40.292Z,101367.28
2023-12-03T18:56:10.498Z,101366.28
2023-12-03T18:58:38.484Z,101364.47
2023-12-03T19:01:09.314Z,101380.97
2023-12-03T19:03:37.433Z,101385.31
2023-12-03T19:06:05.667Z,101408.06
2023-12-03T19:08:36.290Z,101412.38
2023-12-03T19:11:09.225Z,101401.88
2023-12-03T19:13:37.257Z,101368.50
2023-12-03T19:16:07.398Z,101387.66
2023-12-03T19:18:37.246Z,101394.56
2023-12-03T19:21:05.482Z,101410.31
2023-12-03T19:23:35.200Z,101446.97
2023-12-03T19:26:03.246Z,101465.38
2023-12-03T19:28:31.174Z,101484.75
2023-12-03T19:31:00.724Z,101521.53
2023-12-03T19:33:28.703Z,101518.19
2023-12-03T19:35:56.776Z,101533.16
2023-12-03T19:38:24.723Z,101538.47
2023-12-03T19:40:54.255Z,101523.66
2023-12-03T19:43:22.230Z,101515.75
2023-12-03T19:45:50.268Z,101500.88
2023-12-03T19:48:19.499Z,101526.31
2023-12-03T19:50:47.680Z,101557.91
2023-12-03T19:53:15.643Z,101574.72
2023-12-03T19:55:43.885Z,101531.97
2023-12-03T19:58:13.369Z,101551.25
2023-12-03T20:00:41.962Z,101554.88
2023-12-03T20:03:10.023Z,101531.28
2023-12-03T20:05:40.056Z,101539.25
2023-12-03T20:08:08.355Z,101540.25
2023-12-03T20:10:37.066Z,101495.66
2023-12-03T20:13:05.044Z,101498.34
2023-12-03T20:27:28.072Z,101530.53
2023-12-03T20:45:35.150Z,101522.91
2023-12-03T20:59:04.641Z,101459.88
2023-12-03T21:01:52.055Z,101493.03
2023-12-03T21:04:59.835Z,101503.50
2023-12-03T21:07:31.794Z,101504.41
2023-12-03T21:10:05.699Z,101526.25
2023-12-03T21:12:38.446Z,101564.91
2023-12-03T21:15:10.187Z,101554.50
2023-12-03T21:20:42.556Z,101537.97
2023-12-03T21:26:28.237Z,101493.38
2023-12-03T21:32:20.198Z,101501.31
2023-12-03T21:34:49.528Z,101478.63
2023-12-03T21:37:20.378Z,101446.19
2023-12-03T21:39:50.756Z,101454.09
2023-12-03T21:42:18.700Z,101464.63
2023-12-03T21:44:46.574Z,101441.00
2023-12-03T21:47:14.784Z,101425.25
2023-12-03T21:49:43.083Z,101435.72
2023-12-03T21:52:14.946Z,101421.72
2023-12-03T21:54:43.343Z,101437.50
2023-12-03T21:57:11.376Z,101423.53
2023-12-03T21:59:39.410Z,101419.16
2023-12-03T22:02:07.757Z,101374.50
2023-12-03T22:04:36.180Z,101390.16
2023-12-03T22:07:04.366Z,101409.41
2023-12-03T22:09:33.685Z,101377.00
2023-12-03T22:12:01.629Z,101400.63
2023-12-03T22:14:29.482Z,101386.56
2023-12-03T22:16:59.557Z,101359.38
2023-12-03T22:19:27.542Z,101348.91
2023-12-03T22:21:55.564Z,101348.78
2023-12-03T22:24:23.466Z,101351.38
2023-12-03T22:26:52.698Z,101341.66
2023-12-03T22:29:26.454Z,101342.41
2023-12-03T22:32:03.907Z,101357.97
2023-12-03T22:34:31.845Z,101356.16
2023-12-03T22:37:01.104Z,101369.16
2023-12-03T22:39:29.069Z,101374.34
2023-12-03T22:41:58.657Z,101364.66
2023-12-03T22:44:28.053Z,101372.41
2023-12-03T22:46:57.742Z,101342.63
2023-12-03T22:49:25.723Z,101369.53
2023-12-03T22:51:53.776Z,101338.88
2023-12-03T22:54:21.728Z,101335.19
2023-12-03T22:56:49.580Z,101344.72
2023-12-03T22:59:19.062Z,101327.16
2023-12-03T23:01:47.179Z,101291.25
2023-12-03T23:04:15.086Z,101311.16
2023-12-03T23:06:43.996Z,101286.56
2023-12-03T23:09:12.276Z,101300.44
2023-12-03T23:11:41.473Z,101307.31
2023-12-03T23:14:09.364Z,101329.03
2023-12-03T23:16:45.398Z,101310.75
2023-12-03T23:19:13.984Z,101288.75
2023-12-03T23:21:42.296Z,101307.78
2023-12-03T23:24:10.119Z,101313.81
2023-12-03T23:26:41.240Z,101357.41
2023-12-03T23:29:10.151Z,101395.91
2023-12-03T23:31:38.415Z,101402.00
2023-12-03T23:34:07.782Z,101408.03
2023-12-03T23:36:35.668Z,101324.16
2023-12-03T23:39:03.677Z,101388.66
2023-12-03T23:41:31.783Z,101405.28
2023-12-03T23:43:59.723Z,101396.44
2023-12-03T23:46:27.646Z,101390.22
2023-12-03T23:48:55.633Z,101416.38
2023-12-03T23:51:25.044Z,101420.75
2023-12-03T23:53:53.229Z,101426.72
2023-12-03T23:56:22.539Z,101442.50
2023-12-03T23:58:50.634Z,101446.00
